Time;durP1;ratioP1;P1;durP2;ratioP2;P2;SDS_P1;SDS_P2;PMS_P1;PMS_P2;Temp;Humidity;BMP_temperature;BMP_pressure;BME280_temperature;BME280_humidity;BME280_pressure;Samples;Min_cycle;Max_cycle;Signal;HPM_P1;HPM_P2
2020/12/03 00:02:16;;;;;;;;;;;;;;;-0.69;70.47;99942.34;5087779;28;20453;-68
2020/12/03 00:04:46;;;;;;;;;;;;;;;-0.68;70.27;99927.97;5105345;28;19924;-68
2020/12/03 00:07:12;;;;;;;;;;;;;;;-0.65;71.00;99939.38;5082715;28;19981;-68
2020/12/03 00:09:42;;;;;;;;;;;;;;;-0.69;70.25;99937.00;5081882;28;20023;-68
2020/12/03 00:12:09;;;;;;;;;;;;;;;-0.72;71.55;99939.16;5083815;28;19938;-68
2020/12/03 00:14:35;;;;;;;;;;;;;;;-0.67;70.45;99940.38;5106758;28;20018;-68
2020/12/03 00:17:01;;;;;;;;;;;;;;;-0.60;71.15;99942.44;5083456;28;19970;-69
2020/12/03 00:19:27;;;;;;;;;;;;;;;-0.56;70.62;99925.09;5101082;28;19981;-68
2020/12/03 00:21:59;;;;;;;;;;;;;;;-0.47;69.71;99937.56;5078023;28;19951;-68
2020/12/03 00:24:29;;;;;;;;;;;;;;;-0.53;70.19;99927.47;5069856;28;20015;-69
2020/12/03 00:26:55;;;;;;;;;;;;;;;-0.49;70.57;99928.84;5104933;28;19989;-68
2020/12/03 00:29:22;;;;;;;;;;;;;;;-0.55;70.97;99929.44;5087964;28;19966;-69
2020/12/03 00:31:49;;;;;;;;;;;;;;;-0.35;69.75;99928.34;5094940;28;19930;-69
2020/12/03 00:34:16;;;;;;;;;;;;;;;-0.14;66.66;99928.84;5108195;28;19939;-68
2020/12/03 00:36:42;;;;;;;;;;;;;;;-0.09;66.83;99926.53;5075421;28;19931;-69
2020/12/03 00:39:10;;;;;;;;;;;;;;;-0.04;64.64;99918.03;5090106;28;20381;-68
2020/12/03 00:41:36;;;;;;;;;;;;;;;-0.07;65.40;99913.84;5091198;28;19946;-68
2020/12/03 00:44:03;;;;;;;;;;;;;;;-0.08;65.28;99908.63;5085426;28;19928;-68
2020/12/03 00:46:33;;;;;;;;;;;;;;;-0.08;64.96;99917.50;5096104;28;20133;-68
2020/12/03 00:48:59;;;;;;;;;;;;;;;-0.07;64.79;99911.16;5080223;28;20023;-68
2020/12/03 00:51:26;;;;;;;;;;;;;;;-0.06;64.81;99912.00;5090823;28;19928;-68
2020/12/03 00:53:52;;;;;;;;;;;;;;;-0.05;65.17;99914.53;5087589;28;20012;-68
2020/12/03 00:56:19;;;;;;;;;;;;;;;-0.05;65.81;99903.81;5095870;28;19973;-68
2020/12/03 00:58:48;;;;;;;;;;;;;;;-0.09;65.98;99897.09;5063072;28;19935;-67
2020/12/03 01:01:15;;;;;;;;;;;;;;;-0.08;64.92;99898.75;5077644;28;19935;-68
2020/12/03 01:03:41;;;;;;;;;;;;;;;-0.04;64.89;99892.09;5077802;28;20019;-68
2020/12/03 01:06:07;;;;;;;;;;;;;;;-0.04;65.18;99893.94;5094507;28;19946;-68
2020/12/03 01:08:34;;;;;;;;;;;;;;;-0.03;65.46;99895.63;5092547;28;19934;-68
2020/12/03 01:11:01;;;;;;;;;;;;;;;-0.05;65.05;99885.06;5085338;28;19924;-68
2020/12/03 01:13:27;;;;;;;;;;;;;;;-0.02;65.90;99883.91;5085849;28;19959;-68
2020/12/03 01:15:54;;;;;;;;;;;;;;;0.00;65.43;99879.25;5095731;28;19924;-68
2020/12/03 01:18:20;;;;;;;;;;;;;;;-0.02;65.29;99876.72;5097266;28;19924;-68
2020/12/03 01:20:47;;;;;;;;;;;;;;;0.00;64.85;99868.53;5104038;28;20427;-68
2020/12/03 01:23:13;;;;;;;;;;;;;;;0.04;65.08;99877.06;5068495;28;19971;-68
2020/12/03 01:25:39;;;;;;;;;;;;;;;0.04;65.05;99869.88;5085453;28;19923;-68
2020/12/03 01:28:06;;;;;;;;;;;;;;;0.06;65.49;99867.03;5081310;28;19924;-68
2020/12/03 01:30:32;;;;;;;;;;;;;;;0.03;66.14;99859.31;5102363;28;19924;-68
2020/12/03 01:32:58;;;;;;;;;;;;;;;0.08;65.50;99855.16;5099479;28;19966;-68
2020/12/03 01:35:24;;;;;;;;;;;;;;;0.09;65.23;99850.66;5073367;28;19924;-68
2020/12/03 01:37:51;;;;;;;;;;;;;;;0.08;65.05;99848.97;5117912;28;19919;-68
2020/12/03 01:40:21;;;;;;;;;;;;;;;0.04;65.61;99837.72;5098662;28;19924;-68
2020/12/03 01:42:48;;;;;;;;;;;;;;;0.07;65.22;99837.41;5104473;28;20370;-68
2020/12/03 01:45:33;;;;;;;;;;;;;;;0.00;66.26;99837.19;5069138;28;19924;-68
2020/12/03 01:48:00;;;;;;;;;;;;;;;-0.05;66.83;99834.19;5090165;28;20005;-68
2020/12/03 01:50:26;;;;;;;;;;;;;;;-0.15;66.69;99838.78;5091163;28;19981;-69
2020/12/03 01:52:52;;;;;;;;;;;;;;;-0.23;66.46;99824.50;5089954;28;19931;-68
2020/12/03 01:55:19;;;;;;;;;;;;;;;-0.16;67.02;99826.41;5095473;28;20062;-69
2020/12/03 01:57:50;;;;;;;;;;;;;;;-0.20;66.79;99825.03;5093710;28;19931;-68
2020/12/03 02:00:18;;;;;;;;;;;;;;;-0.15;66.40;99817.38;5103479;28;19911;-69
2020/12/03 02:02:45;;;;;;;;;;;;;;;-0.23;66.52;99813.78;5111405;28;19995;-68
2020/12/03 02:05:12;;;;;;;;;;;;;;;-0.18;66.12;99822.19;5095426;28;20347;-68
2020/12/03 02:07:39;;;;;;;;;;;;;;;-0.16;66.38;99810.34;5087259;28;20376;-68
2020/12/03 02:10:06;;;;;;;;;;;;;;;-0.19;66.88;99813.31;5079533;28;19928;-68
2020/12/03 02:12:32;;;;;;;;;;;;;;;-0.22;66.81;99804.75;5075910;28;19996;-68
2020/12/03 02:14:59;;;;;;;;;;;;;;;-0.23;66.70;99801.25;5070472;28;19944;-68
2020/12/03 02:17:25;;;;;;;;;;;;;;;-0.23;66.28;99792.38;5077494;28;19925;-68
2020/12/03 02:20:02;;;;;;;;;;;;;;;-0.23;67.10;99795.06;5077682;28;19950;-68
2020/12/03 02:22:30;;;;;;;;;;;;;;;-0.28;66.68;99795.53;5063647;28;19978;-68
2020/12/03 02:24:56;;;;;;;;;;;;;;;-0.29;66.75;99787.63;5080614;28;19944;-68
2020/12/03 02:27:23;;;;;;;;;;;;;;;-0.32;66.87;99786.13;5069446;28;19924;-68
2020/12/03 02:29:50;;;;;;;;;;;;;;;-0.29;66.84;99776.94;5079068;28;19924;-69
2020/12/03 02:32:17;;;;;;;;;;;;;;;-0.21;67.19;99777.84;5004359;23;19933;-69
2020/12/03 02:34:43;;;;;;;;;;;;;;;-0.34;66.96;99777.41;4988898;28;19925;-70
2020/12/03 02:37:10;;;;;;;;;;;;;;;-0.23;66.69;99765.59;4986243;28;19934;-69
2020/12/03 02:39:36;;;;;;;;;;;;;;;-0.26;67.10;99771.28;5005205;28;20020;-68
2020/12/03 02:42:03;;;;;;;;;;;;;;;-0.19;65.90;99762.44;4999718;28;19925;-69
2020/12/03 02:44:30;;;;;;;;;;;;;;;-0.19;66.40;99759.78;4993980;28;19934;-69
2020/12/03 02:46:56;;;;;;;;;;;;;;;-0.20;66.60;99763.44;5003860;28;19992;-69
2020/12/03 02:49:22;;;;;;;;;;;;;;;-0.23;67.01;99747.69;4979420;28;19930;-69
2020/12/03 02:51:50;;;;;;;;;;;;;;;-0.22;66.97;99749.38;4994978;28;19942;-69
2020/12/03 02:54:16;;;;;;;;;;;;;;;-0.27;66.63;99750.84;4983464;28;20028;-69
2020/12/03 02:56:42;;;;;;;;;;;;;;;-0.30;67.05;99760.03;4995374;28;19925;-68
2020/12/03 02:59:09;;;;;;;;;;;;;;;-0.24;67.18;99740.66;5006118;28;19926;-69
2020/12/03 03:01:35;;;;;;;;;;;;;;;-0.31;66.99;99734.25;5000064;28;19933;-68
2020/12/03 03:04:04;;;;;;;;;;;;;;;-0.29;66.72;99734.94;4982662;28;19926;-69
2020/12/03 03:06:31;;;;;;;;;;;;;;;-0.26;66.96;99723.91;4972688;28;20028;-69
2020/12/03 03:08:57;;;;;;;;;;;;;;;-0.27;67.17;99716.88;4989836;28;19937;-69
2020/12/03 03:11:24;;;;;;;;;;;;;;;-0.27;67.08;99722.25;4989667;28;20119;-69
2020/12/03 03:13:50;;;;;;;;;;;;;;;-0.27;67.19;99724.91;4965469;28;20009;-69
2020/12/03 03:16:16;;;;;;;;;;;;;;;-0.31;67.69;99715.53;4991319;28;19953;-69
2020/12/03 03:18:42;;;;;;;;;;;;;;;-0.43;68.37;99716.81;4973440;28;19932;-68
2020/12/03 03:21:09;;;;;;;;;;;;;;;-0.33;67.74;99706.81;4983798;28;19972;-69
2020/12/03 03:23:35;;;;;;;;;;;;;;;-0.39;67.67;99708.31;4974869;28;20347;-69
2020/12/03 03:26:01;;;;;;;;;;;;;;;-0.32;67.33;99707.66;4973949;28;19930;-69
2020/12/03 03:28:27;;;;;;;;;;;;;;;-0.35;67.40;99703.47;4988223;28;19960;-69
2020/12/03 03:30:53;;;;;;;;;;;;;;;-0.36;68.17;99701.81;4987650;28;20009;-68
2020/12/03 03:33:20;;;;;;;;;;;;;;;-0.32;66.57;99697.78;4970705;28;20431;-69
2020/12/03 03:35:47;;;;;;;;;;;;;;;-0.37;67.87;99703.63;4988695;28;19930;-68
2020/12/03 03:38:13;;;;;;;;;;;;;;;-0.29;67.03;99707.34;4975981;28;19930;-69
2020/12/03 03:40:40;;;;;;;;;;;;;;;-0.36;67.63;99713.34;4987384;28;19984;-68
2020/12/03 03:43:06;;;;;;;;;;;;;;;-0.30;67.02;99709.16;4987876;28;20513;-69
2020/12/03 03:45:33;;;;;;;;;;;;;;;-0.36;68.16;99710.66;4989831;28;19926;-69
2020/12/03 03:48:00;;;;;;;;;;;;;;;-0.37;68.59;99713.50;4994574;28;19926;-69
2020/12/03 03:50:27;;;;;;;;;;;;;;;-0.39;68.46;99707.47;4975764;28;19977;-69
2020/12/03 03:52:54;;;;;;;;;;;;;;;-0.31;68.35;99695.94;5000779;28;19984;-69
2020/12/03 03:55:20;;;;;;;;;;;;;;;-0.35;68.34;99698.13;5001883;28;19930;-69
2020/12/03 03:57:47;;;;;;;;;;;;;;;-0.37;68.63;99690.25;4969414;28;19948;-68
2020/12/03 04:00:15;;;;;;;;;;;;;;;-0.44;68.95;99680.34;4987736;28;19958;-69
2020/12/03 04:02:42;;;;;;;;;;;;;;;-0.52;68.69;99674.94;4991956;28;19934;-69
2020/12/03 04:05:08;;;;;;;;;;;;;;;-0.53;69.54;99675.94;4960047;28;19927;-69
2020/12/03 04:07:34;;;;;;;;;;;;;;;-0.53;69.63;99667.91;5001393;28;19937;-69
2020/12/03 04:10:00;;;;;;;;;;;;;;;-0.48;69.20;99673.63;4987202;28;20420;-69
2020/12/03 04:12:28;;;;;;;;;;;;;;;-0.53;69.78;99670.56;4978223;28;19969;-69
2020/12/03 04:14:54;;;;;;;;;;;;;;;-0.51;68.79;99666.75;4989848;28;19984;-70
2020/12/03 04:17:20;;;;;;;;;;;;;;;-0.44;68.81;99667.78;4968808;28;20393;-69
2020/12/03 04:19:47;;;;;;;;;;;;;;;-0.44;68.99;99681.19;4971137;28;19992;-69
2020/12/03 04:22:13;;;;;;;;;;;;;;;-0.42;68.93;99675.66;4973139;28;20562;-69
2020/12/03 04:24:39;;;;;;;;;;;;;;;-0.43;68.52;99685.53;4980400;28;19926;-69
2020/12/03 04:27:05;;;;;;;;;;;;;;;-0.37;68.22;99684.91;5007839;28;19973;-69
2020/12/03 04:29:32;;;;;;;;;;;;;;;-0.39;68.52;99678.88;4985069;28;19926;-69
2020/12/03 04:31:58;;;;;;;;;;;;;;;-0.38;68.39;99682.38;4988867;28;20037;-69
2020/12/03 04:34:24;;;;;;;;;;;;;;;-0.39;68.02;99678.03;4985995;28;20419;-69
2020/12/03 04:36:50;;;;;;;;;;;;;;;-0.42;68.15;99678.34;4973752;28;19938;-69
2020/12/03 04:39:17;;;;;;;;;;;;;;;-0.40;68.60;99673.66;4990282;28;20038;-69
2020/12/03 04:41:43;;;;;;;;;;;;;;;-0.41;68.59;99666.63;4970571;28;19930;-69
2020/12/03 04:44:19;;;;;;;;;;;;;;;-0.43;68.04;99657.94;4973474;28;20299;-69
2020/12/03 04:47:04;;;;;;;;;;;;;;;-0.40;68.24;99652.25;4990043;28;19929;-69
2020/12/03 04:49:57;;;;;;;;;;;;;;;-0.40;68.39;99646.91;4986957;28;20029;-69
2020/12/03 04:52:32;;;;;;;;;;;;;;;-0.42;68.45;99643.56;4997225;28;20544;-69
2020/12/03 04:54:58;;;;;;;;;;;;;;;-0.38;67.96;99647.59;5002516;28;20478;-69
2020/12/03 04:57:25;;;;;;;;;;;;;;;-0.43;68.25;99639.19;4998583;28;20004;-69
2020/12/03 05:00:04;;;;;;;;;;;;;;;-0.42;67.82;99636.34;4977301;28;19973;-68
2020/12/03 05:02:43;;;;;;;;;;;;;;;-0.40;67.48;99637.03;4989031;28;20422;-69
2020/12/03 05:05:21;;;;;;;;;;;;;;;-0.39;68.04;99637.88;4997782;28;20384;-69
2020/12/03 05:07:50;;;;;;;;;;;;;;;-0.40;68.12;99631.69;5003414;28;19926;-69
2020/12/03 05:10:28;;;;;;;;;;;;;;;-0.38;68.05;99629.69;5000889;28;19965;-68
2020/12/03 05:12:55;;;;;;;;;;;;;;;-0.38;67.67;99628.84;4996260;28;19929;-70
2020/12/03 05:15:30;;;;;;;;;;;;;;;-0.35;67.20;99623.19;4972512;28;19953;-69
2020/12/03 05:18:00;;;;;;;;;;;;;;;-0.36;67.68;99629.53;5002985;28;19981;-69
2020/12/03 05:20:36;;;;;;;;;;;;;;;-0.26;67.49;99632.06;4972517;28;19988;-69
2020/12/03 05:23:05;;;;;;;;;;;;;;;-0.29;67.32;99641.25;4991848;28;19936;-68
2020/12/03 05:25:31;;;;;;;;;;;;;;;-0.29;68.03;99638.56;5007011;28;19968;-69
2020/12/03 05:27:59;;;;;;;;;;;;;;;-0.20;66.21;99632.25;5006875;28;20363;-69
2020/12/03 05:30:25;;;;;;;;;;;;;;;-0.20;66.08;99637.63;4987385;28;20024;-69
2020/12/03 05:32:52;;;;;;;;;;;;;;;-0.25;66.44;99639.94;5006916;28;19925;-69
2020/12/03 05:35:18;;;;;;;;;;;;;;;-0.26;66.08;99646.28;5006540;28;20023;-69
2020/12/03 05:37:45;;;;;;;;;;;;;;;-0.25;66.20;99639.94;5006024;28;20512;-69
2020/12/03 05:40:16;;;;;;;;;;;;;;;-0.25;65.79;99644.44;4974532;28;19926;-69
2020/12/03 05:42:43;;;;;;;;;;;;;;;-0.28;66.23;99637.56;4990628;28;19925;-69
2020/12/03 05:45:10;;;;;;;;;;;;;;;-0.25;66.55;99634.56;4991444;28;19969;-69
2020/12/03 05:47:37;;;;;;;;;;;;;;;-0.21;67.28;99635.09;4989978;28;20422;-68
2020/12/03 05:50:07;;;;;;;;;;;;;;;-0.22;66.29;99631.56;4974206;28;20363;-70
2020/12/03 05:52:33;;;;;;;;;;;;;;;-0.26;66.05;99621.34;4991275;28;19933;-69
2020/12/03 05:55:00;;;;;;;;;;;;;;;-0.23;66.12;99627.22;5006119;28;19925;-69
2020/12/03 05:57:29;;;;;;;;;;;;;;;-0.24;65.74;99622.88;4991223;28;20392;-69
2020/12/03 06:00:06;;;;;;;;;;;;;;;-0.28;65.70;99623.34;4978424;28;19933;-68
2020/12/03 06:02:36;;;;;;;;;;;;;;;-0.29;66.33;99609.13;5005800;28;20017;-69
2020/12/03 06:05:11;;;;;;;;;;;;;;;-0.28;65.79;99605.44;5006428;28;19932;-69
2020/12/03 06:07:40;;;;;;;;;;;;;;;-0.31;66.09;99607.59;5006084;28;19968;-69
2020/12/03 06:10:10;;;;;;;;;;;;;;;-0.29;66.48;99601.09;4991133;28;19932;-69
2020/12/03 06:12:53;;;;;;;;;;;;;;;-0.31;65.88;99589.72;4974137;28;20005;-69
2020/12/03 06:15:35;;;;;;;;;;;;;;;-0.27;65.80;99599.09;5007177;28;19933;-69
2020/12/03 06:18:24;;;;;;;;;;;;;;;-0.27;66.13;99592.91;4986936;28;19972;-69
2020/12/03 06:20:52;;;;;;;;;;;;;;;-0.25;66.21;99599.78;4990947;28;19933;-69
2020/12/03 06:23:45;;;;;;;;;;;;;;;-0.26;65.99;99595.41;4994112;28;19925;-69
2020/12/03 06:26:30;;;;;;;;;;;;;;;-0.24;66.49;99588.06;4992140;28;20359;-69
2020/12/03 06:29:08;;;;;;;;;;;;;;;-0.23;66.38;99579.03;5006290;28;20351;-69
2020/12/03 06:31:53;;;;;;;;;;;;;;;-0.25;65.73;99585.56;5007553;28;19930;-69
2020/12/03 06:34:21;;;;;;;;;;;;;;;-0.24;66.61;99585.38;4994967;28;19925;-69
2020/12/03 06:36:55;;;;;;;;;;;;;;;-0.23;66.63;99573.69;4993200;28;20410;-69
2020/12/03 06:39:33;;;;;;;;;;;;;;;-0.23;66.54;99580.88;5009881;28;20024;-69
2020/12/03 06:42:19;;;;;;;;;;;;;;;-0.24;66.14;99572.00;4993490;28;20013;-69
2020/12/03 06:44:50;;;;;;;;;;;;;;;-0.27;66.14;99576.84;4993783;28;19925;-69
2020/12/03 06:47:21;;;;;;;;;;;;;;;-0.29;65.75;99585.03;5000782;28;19972;-68
2020/12/03 06:49:54;;;;;;;;;;;;;;;-0.33;65.77;99575.66;4989408;28;19957;-69
2020/12/03 06:52:27;;;;;;;;;;;;;;;-0.36;65.83;99579.50;5010084;28;19933;-69
2020/12/03 06:54:57;;;;;;;;;;;;;;;-0.35;65.65;99577.69;5002405;28;19997;-69
2020/12/03 06:57:28;;;;;;;;;;;;;;;-0.36;66.37;99573.31;5009461;28;19926;-69
2020/12/03 07:00:13;;;;;;;;;;;;;;;-0.35;65.70;99562.44;4997829;28;19936;-68
2020/12/03 07:02:58;;;;;;;;;;;;;;;-0.27;65.71;99571.50;4994617;28;19925;-68
2020/12/03 07:05:29;;;;;;;;;;;;;;;-0.26;66.09;99557.94;5009496;28;19934;-69
2020/12/03 07:08:07;;;;;;;;;;;;;;;-0.24;65.52;99558.63;4977246;28;19989;-69
2020/12/03 07:10:52;;;;;;;;;;;;;;;-0.30;65.93;99548.56;4992754;28;20012;-69
2020/12/03 07:13:26;;;;;;;;;;;;;;;-0.31;65.73;99543.38;4994150;28;19930;-67
2020/12/03 07:16:10;;;;;;;;;;;;;;;-0.37;65.27;99536.84;4998421;28;19937;-69
2020/12/03 07:18:42;;;;;;;;;;;;;;;-0.31;66.21;99546.88;4979720;28;19980;-69
2020/12/03 07:21:27;;;;;;;;;;;;;;;-0.28;65.54;99543.88;4989419;28;20013;-69
2020/12/03 07:23:59;;;;;;;;;;;;;;;-0.29;65.96;99542.19;4994524;28;20024;-69
2020/12/03 07:26:44;;;;;;;;;;;;;;;-0.28;65.86;99537.69;4993341;28;19926;-69
2020/12/03 07:29:13;;;;;;;;;;;;;;;-0.24;65.78;99541.72;4991869;28;20372;-69
2020/12/03 07:31:39;;;;;;;;;;;;;;;-0.26;65.56;99544.56;4992465;28;19933;-69
2020/12/03 07:34:24;;;;;;;;;;;;;;;-0.26;65.88;99546.41;5008681;28;20008;-70
2020/12/03 07:36:56;;;;;;;;;;;;;;;-0.26;65.86;99547.22;5008349;28;19933;-70
2020/12/03 07:39:24;;;;;;;;;;;;;;;-0.25;65.63;99553.44;5008367;28;19929;-69
2020/12/03 07:41:53;;;;;;;;;;;;;;;-0.26;65.63;99557.94;5008084;28;19977;-69
2020/12/03 07:44:25;;;;;;;;;;;;;;;-0.19;65.70;99552.78;4991984;28;19945;-69
2020/12/03 07:46:53;;;;;;;;;;;;;;;-0.20;65.15;99551.09;4993782;28;20355;-69
2020/12/03 07:49:38;;;;;;;;;;;;;;;-0.24;65.35;99550.59;4990904;28;19961;-69
2020/12/03 07:52:17;;;;;;;;;;;;;;;-0.29;65.64;99542.19;4992967;28;20024;-69
2020/12/03 07:54:43;;;;;;;;;;;;;;;-0.23;65.44;99535.38;4974471;28;19926;-69
2020/12/03 07:57:22;;;;;;;;;;;;;;;-0.20;65.66;99533.19;5007154;28;19933;-70
2020/12/03 07:59:48;;;;;;;;;;;;;;;-0.17;64.79;99535.56;4997170;28;19930;-69
2020/12/03 08:02:33;;;;;;;;;;;;;;;-0.13;65.56;99538.75;5006987;28;19984;-69
2020/12/03 08:04:59;;;;;;;;;;;;;;;-0.15;65.70;99538.91;5007993;28;20013;-69
2020/12/03 08:07:27;;;;;;;;;;;;;;;-0.11;65.12;99537.56;5007229;28;19976;-69
2020/12/03 08:09:53;;;;;;;;;;;;;;;-0.08;64.49;99537.25;4992185;28;19926;-70
2020/12/03 08:12:21;;;;;;;;;;;;;;;-0.15;64.91;99530.03;5008038;28;19926;-70
2020/12/03 08:14:49;;;;;;;;;;;;;;;-0.14;64.96;99529.88;5008209;28;19929;-69
2020/12/03 08:17:15;;;;;;;;;;;;;;;-0.10;64.92;99523.19;4991669;28;19940;-69
2020/12/03 08:19:41;;;;;;;;;;;;;;;-0.10;64.36;99520.50;4982819;28;20415;-70
2020/12/03 08:22:24;;;;;;;;;;;;;;;-0.13;64.63;99514.66;4991144;28;20349;-69
2020/12/03 08:24:59;;;;;;;;;;;;;;;-0.08;63.97;99518.50;4992236;28;20004;-69
2020/12/03 08:27:25;;;;;;;;;;;;;;;-0.07;64.49;99512.16;4992300;28;20032;-69
2020/12/03 08:29:51;;;;;;;;;;;;;;;-0.07;64.41;99512.16;4990182;28;19925;-69
2020/12/03 08:32:18;;;;;;;;;;;;;;;-0.04;63.94;99503.78;5057675;23;19925;-67
2020/12/03 08:34:44;;;;;;;;;;;;;;;-0.07;64.30;99500.59;5049244;28;19931;-67
2020/12/03 08:37:15;;;;;;;;;;;;;;;-0.05;64.49;99495.91;5036225;28;19925;-67
2020/12/03 08:39:42;;;;;;;;;;;;;;;-0.06;64.45;99505.78;5045836;28;20126;-67
2020/12/03 08:42:09;;;;;;;;;;;;;;;0.00;63.83;99502.44;5034161;28;19967;-67
2020/12/03 08:44:36;;;;;;;;;;;;;;;-0.03;63.35;99504.63;5033506;28;19925;-67
2020/12/03 08:47:09;;;;;;;;;;;;;;;-0.07;64.03;99498.75;5018225;28;19979;-67
2020/12/03 08:49:39;;;;;;;;;;;;;;;0.01;64.09;99500.59;5032649;28;19944;-67
2020/12/03 08:52:05;;;;;;;;;;;;;;;0.11;63.39;99490.56;5049568;28;20012;-67
2020/12/03 08:54:32;;;;;;;;;;;;;;;0.13;62.81;99493.06;5033024;28;20459;-67
2020/12/03 08:57:02;;;;;;;;;;;;;;;0.09;62.88;99484.53;5032771;28;20443;-67
2020/12/03 08:59:36;;;;;;;;;;;;;;;0.11;63.59;99479.00;5017165;28;19924;-67
2020/12/03 09:02:10;;;;;;;;;;;;;;;0.17;62.82;99476.50;5049228;28;19956;-67
2020/12/03 09:04:37;;;;;;;;;;;;;;;0.41;63.57;99480.16;5016685;28;20011;-67
2020/12/03 09:07:04;;;;;;;;;;;;;;;0.37;61.65;99474.28;4999178;28;19964;-67
2020/12/03 09:09:30;;;;;;;;;;;;;;;0.30;62.03;99470.66;5032353;28;19935;-67
2020/12/03 09:11:56;;;;;;;;;;;;;;;0.44;61.99;99463.75;5048465;28;20391;-67
2020/12/03 09:14:23;;;;;;;;;;;;;;;0.54;61.08;99464.41;5031896;28;19929;-68
2020/12/03 09:16:52;;;;;;;;;;;;;;;0.50;60.76;99457.72;5012272;28;20020;-67
2020/12/03 09:19:22;;;;;;;;;;;;;;;0.49;61.00;99451.50;5032976;28;20387;-67
2020/12/03 09:21:50;;;;;;;;;;;;;;;0.58;60.95;99444.28;5014642;28;20017;-67
2020/12/03 09:24:17;;;;;;;;;;;;;;;0.63;60.92;99442.78;5052283;28;19925;-67
2020/12/03 09:26:44;;;;;;;;;;;;;;;0.58;61.17;99442.44;5031771;28;20012;-67
2020/12/03 09:29:10;;;;;;;;;;;;;;;0.69;59.94;99445.78;5016153;28;19925;-67
2020/12/03 09:31:36;;;;;;;;;;;;;;;0.77;60.06;99440.38;4996341;28;19985;-67
2020/12/03 09:34:03;;;;;;;;;;;;;;;0.86;60.08;99436.66;5027143;28;20284;-67
2020/12/03 09:36:32;;;;;;;;;;;;;;;0.87;59.45;99427.63;5031570;28;20611;-67
2020/12/03 09:38:59;;;;;;;;;;;;;;;0.88;59.88;99424.75;5015286;28;19926;-67
2020/12/03 09:41:29;;;;;;;;;;;;;;;0.85;59.74;99414.38;5001142;28;19976;-67
2020/12/03 09:43:58;;;;;;;;;;;;;;;0.90;60.40;99406.66;5025361;28;19925;-67
2020/12/03 09:46:26;;;;;;;;;;;;;;;0.90;59.49;99403.97;5048539;28;19972;-67
2020/12/03 09:48:53;;;;;;;;;;;;;;;0.92;59.58;99404.63;5047649;28;19992;-67
2020/12/03 09:51:22;;;;;;;;;;;;;;;0.79;60.57;99403.50;5047993;28;19965;-67
2020/12/03 09:53:50;;;;;;;;;;;;;;;0.76;59.94;99398.47;5048185;28;19960;-68
2020/12/03 09:56:16;;;;;;;;;;;;;;;0.64;60.88;99400.72;4995794;28;19948;-67
2020/12/03 09:58:43;;;;;;;;;;;;;;;0.59;60.65;99397.72;5027823;28;19971;-67
2020/12/03 10:01:09;;;;;;;;;;;;;;;0.69;61.67;99394.84;5039073;28;19925;-67
2020/12/03 10:03:54;;;;;;;;;;;;;;;0.65;61.15;99402.41;5032052;28;19929;-67
2020/12/03 10:06:29;;;;;;;;;;;;;;;0.61;61.63;99393.84;5049695;28;19932;-67
2020/12/03 10:09:14;;;;;;;;;;;;;;;0.60;61.56;99373.41;5049411;28;19949;-66
2020/12/03 10:12:06;;;;;;;;;;;;;;;0.63;61.71;99356.16;5020198;28;20024;-67
2020/12/03 10:14:41;;;;;;;;;;;;;;;0.71;61.31;99349.91;5004501;28;19967;-67
2020/12/03 10:17:10;;;;;;;;;;;;;;;0.76;60.75;99343.00;5014922;28;19932;-67
2020/12/03 10:19:43;;;;;;;;;;;;;;;0.79;60.90;99347.19;5047976;28;19979;-67
2020/12/03 10:22:11;;;;;;;;;;;;;;;0.84;60.71;99353.72;5047471;28;19925;-68
2020/12/03 10:24:47;;;;;;;;;;;;;;;0.81;60.92;99347.84;5031560;28;19965;-67
2020/12/03 10:27:25;;;;;;;;;;;;;;;0.89;60.53;99343.28;5031093;28;19932;-67
2020/12/03 10:30:07;;;;;;;;;;;;;;;0.97;60.42;99345.09;5012599;28;19992;-67
2020/12/03 10:32:36;;;;;;;;;;;;;;;1.00;60.59;99337.53;5048013;28;19983;-67
2020/12/03 10:35:02;;;;;;;;;;;;;;;1.02;60.39;99323.94;5011341;28;19930;-67
2020/12/03 10:37:36;;;;;;;;;;;;;;;0.86;60.02;99321.34;5042678;28;19925;-67
2020/12/03 10:40:04;;;;;;;;;;;;;;;0.92;61.02;99317.97;5011689;28;19932;-67
2020/12/03 10:42:37;;;;;;;;;;;;;;;0.98;60.86;99317.28;5026276;28;19949;-67
2020/12/03 10:45:11;;;;;;;;;;;;;;;0.89;61.07;99302.22;5057250;28;19925;-67
2020/12/03 10:47:42;;;;;;;;;;;;;;;0.89;60.54;99302.22;5023255;28;19925;-67
2020/12/03 10:50:11;;;;;;;;;;;;;;;0.92;61.07;99297.34;5032256;28;19996;-67
2020/12/03 10:52:37;;;;;;;;;;;;;;;1.02;60.39;99294.44;5034256;28;20452;-67
2020/12/03 10:55:03;;;;;;;;;;;;;;;1.02;60.22;99293.63;5031502;28;20008;-67
2020/12/03 10:57:31;;;;;;;;;;;;;;;1.16;59.68;99288.28;5047890;28;19925;-67
2020/12/03 10:59:57;;;;;;;;;;;;;;;1.36;59.43;99277.09;5036057;28;20024;-67
2020/12/03 11:02:24;;;;;;;;;;;;;;;1.67;58.13;99273.28;5013848;28;19925;-67
2020/12/03 11:04:50;;;;;;;;;;;;;;;1.68;58.13;99274.13;5035435;28;19952;-67
2020/12/03 11:07:16;;;;;;;;;;;;;;;1.94;58.02;99266.47;5045815;28;19979;-68
2020/12/03 11:09:43;;;;;;;;;;;;;;;1.70;58.01;99263.19;5043411;28;19929;-67
2020/12/03 11:12:10;;;;;;;;;;;;;;;1.52;58.30;99267.03;5041479;28;19956;-67
2020/12/03 11:14:36;;;;;;;;;;;;;;;1.47;58.19;99268.59;5023168;28;20302;-67
2020/12/03 11:17:06;;;;;;;;;;;;;;;1.34;58.41;99266.53;5050481;28;20013;-67
2020/12/03 11:19:53;;;;;;;;;;;;;;;1.43;58.54;99256.53;5034577;28;19949;-66
2020/12/03 11:22:36;;;;;;;;;;;;;;;1.56;58.28;99251.41;5018398;28;19925;-67
2020/12/03 11:25:03;;;;;;;;;;;;;;;1.66;58.55;99242.09;5034693;28;20310;-67
2020/12/03 11:27:30;;;;;;;;;;;;;;;1.64;58.00;99243.28;5051420;28;19925;-67
2020/12/03 11:29:56;;;;;;;;;;;;;;;1.62;58.20;99239.94;5023142;28;20008;-67
2020/12/03 11:32:26;;;;;;;;;;;;;;;1.83;58.02;99242.72;5048552;28;19937;-67
2020/12/03 11:34:52;;;;;;;;;;;;;;;1.63;58.98;99223.66;5035597;28;19929;-67
2020/12/03 11:37:22;;;;;;;;;;;;;;;1.69;58.26;99230.16;5052304;28;19925;-67
2020/12/03 11:39:50;;;;;;;;;;;;;;;1.65;57.75;99218.94;5067536;28;19932;-67
2020/12/03 11:50:14;;;;;;;;;;;;;;;1.76;59.05;99220.31;5066194;28;19936;-67
2020/12/03 11:52:41;;;;;;;;;;;;;;;1.76;58.91;99214.94;5014741;28;19932;-67
2020/12/03 11:55:17;;;;;;;;;;;;;;;1.88;58.60;99215.31;5034364;28;19924;-67
2020/12/03 11:57:46;;;;;;;;;;;;;;;1.86;58.38;99210.13;4998173;28;20025;-67
2020/12/03 12:00:22;;;;;;;;;;;;;;;2.05;57.77;99207.94;5029281;28;19933;-67
2020/12/03 12:02:49;;;;;;;;;;;;;;;1.93;57.79;99199.50;5033416;28;19925;-67
2020/12/03 12:06:06;;;;;;;;;;;;;;;1.87;57.99;99206.44;5050151;28;20119;-67
2020/12/03 12:10:49;;;;;;;;;;;;;;;2.33;57.92;99192.78;5049601;28;20012;-67
2020/12/03 12:13:16;;;;;;;;;;;;;;;2.49;56.61;99189.03;5049163;28;19925;-67
2020/12/03 12:15:42;;;;;;;;;;;;;;;2.40;57.65;99191.00;5013885;28;19929;-67
2020/12/03 12:18:09;;;;;;;;;;;;;;;2.15;57.57;99190.47;5016900;28;20403;-67
2020/12/03 12:20:35;;;;;;;;;;;;;;;2.10;58.35;99178.63;5000089;28;19926;-67
2020/12/03 12:23:02;;;;;;;;;;;;;;;2.12;57.74;99172.03;5037476;28;19925;-68
2020/12/03 12:25:28;;;;;;;;;;;;;;;2.16;58.15;99169.81;5052291;28;20394;-68
2020/12/03 12:27:54;;;;;;;;;;;;;;;2.25;57.67;99158.78;5034958;28;19926;-68
2020/12/03 12:30:20;;;;;;;;;;;;;;;2.37;57.26;99158.28;5046903;28;19926;-68
2020/12/03 12:32:46;;;;;;;;;;;;;;;2.04;57.77;99156.03;5033328;28;19932;-67
2020/12/03 12:35:13;;;;;;;;;;;;;;;2.08;59.00;99161.88;5033207;28;20410;-67
2020/12/03 12:37:39;;;;;;;;;;;;;;;1.94;58.29;99153.63;5032760;28;19987;-67
2020/12/03 12:40:05;;;;;;;;;;;;;;;1.97;58.47;99147.88;5032670;28;19929;-67
2020/12/03 12:42:32;;;;;;;;;;;;;;;1.96;58.26;99143.53;5013953;28;19932;-67
2020/12/03 12:44:58;;;;;;;;;;;;;;;1.94;58.95;99142.06;5034941;28;20179;-68
2020/12/03 12:47:25;;;;;;;;;;;;;;;1.95;59.15;99146.41;5051693;28;19926;-67
2020/12/03 12:49:51;;;;;;;;;;;;;;;2.10;58.71;99141.00;5050579;28;20425;-67
2020/12/03 12:52:17;;;;;;;;;;;;;;;1.83;59.34;99139.84;5049403;28;19925;-67
2020/12/03 12:54:44;;;;;;;;;;;;;;;1.77;59.46;99138.72;5019966;28;19932;-67
2020/12/03 12:57:17;;;;;;;;;;;;;;;1.87;59.68;99136.59;4989232;28;19925;-67
2020/12/03 12:59:44;;;;;;;;;;;;;;;1.78;59.59;99135.03;5022601;28;19926;-68
2020/12/03 13:02:10;;;;;;;;;;;;;;;1.77;59.89;99130.66;5031641;28;19931;-67
2020/12/03 13:04:37;;;;;;;;;;;;;;;1.80;59.83;99135.66;5013648;28;19929;-68
2020/12/03 13:07:06;;;;;;;;;;;;;;;1.86;59.68;99134.94;5016101;28;19968;-68
2020/12/03 13:09:33;;;;;;;;;;;;;;;1.84;59.53;99136.97;5038199;28;20019;-67
2020/12/03 13:11:59;;;;;;;;;;;;;;;1.80;60.05;99146.41;5033878;28;19925;-68
2020/12/03 13:14:26;;;;;;;;;;;;;;;1.71;60.39;99136.81;5032660;28;20461;-67